今日のアクセス数今日のアクセス数

    岡山グライダークラブ活動状況掲示板あなたは無料カウンター人目の訪問者です

岡山グライダークラブ
岡山市浦安南町639-1 岡南飛行場
 使用機:シャイベ式 SF25C型 ファルケ   JA2330
      ヴァレンティン式17E型 タイフーン  JA2342
 練習日:毎日曜日  クラブルーム:電話 086-265-1810
この掲示板は岡山グライダークラブの活動状況をお知らせする掲示板です。
!!!この掲示板は投稿規制をしています。!!!
クラブ関連各種情報は 岡山グライダークラブクラブルーム      を       .
  ブリーフイング情報は  岡山グライダークラブブリーフィングルーム  をご覧下さい。 .
※写真はクリックすると拡大して見ることが出来ます。
岡南飛行場へのアクセス等は 岡南飛行場管理事務所 をご覧ください。
クラブの ホームページ ができました。

ページ 1 (1〜10)ホームページへ戻る

02月17日
by OGC at 2019/2/18(月) 00:40:43 No.20190218003922 コメント】  削除 引用
1024 x 768 x 71,165バイト
No.1

02月17日
本日の参加者
  会員      10名
  その他      1名


@本日の様子




METAR
RJBK 170100 22004KT 170V270 25KM FEW030CU 07/01 Q1012 A3015
RJOB 170100Z VRB03KT 9999 FEW020 SCT030 06/M02 Q1019
RJOT 170100Z 25006KT 190V290 9999 FEW020 SCT025 07/00 Q1020
RJOA 170100Z 25005KT 210V300 9999 FEW025 BKN030 05/M03 Q1020
TAF
RJOB 162310Z 1700/1806 23005KT 9999 FEW025 BKN035
RJOT 162309Z 1700/1806 27006KT 9999 FEW025 SCT045
          BECMG 1721/1800 05005KT
RJOA 162307Z 1700/1806 32005KT 9999 FEW020 SCT045
          BECMG 1800/1803 14004KT


先週に引き続き2機とも整備で、フライトはありませんでした。


解散    16:45


本日のフライトはありませんでした。

 データ復旧>IBM    DELL‥データ復旧

02月10日
by OGC at 2019/2/10(日) 21:31:53 No.20190210213033 コメント】  削除 引用
1024 x 768 x 63,571バイト
No.1

02月10日
本日の参加者
  会員      10名
  その他      1名


@本日の様子




METAR
RJOB 100000Z 02009KT 350V050 9999 FEW015 02/M02 Q1026
RJOT 100000Z 01007KT 9999 FEW015 SCT020 02/M01 Q1027
RJOA 100000Z 02013KT 9999 FEW020 02/M05 Q1025
TAF
RJOB 092308Z 1000/1106 01009KT 9999 FEW020 SCT040
     TEMPO 1018/1100 1500 -SN BR BCFG FEW000 SCT005 BKN008
     BECMG 1100/1103 28009KT
     TEMPO 1100/1103 3000 -SNRA BR BCFG FEW000 SCT005 BKN008
RJOT 092307Z 1000/1106 03005KT 9999 FEW020 SCT060
     TEMPO 1018/1100 3000 -SN BR FEW001 SCT005 BKN008
     BECMG 1100/1103 27009KT
RJOA 092306Z 1000/1106 03009KT 9999 FEW020 BKN040
     TEMPO 1015/1021 3000 -SN BR FEW001 SCT005 BKN008
     BECMG 1100/1103 27008KT


2機とも整備が立て込んでいるため、本日は整備に専念しフライトはありませんでした。


解散    16:50


本日のフライトはありませんでした。

02月03日
by OGC at 2019/2/4(月) 00:29:58 No.20190204002633 コメント】  削除 引用
1024 x 768 x 70,128バイト
No.1

02月03日
本日の参加者
  会員      11名
  その他      0名


@本日の様子




METAR
RJOB 030100Z 07004KT 9999 FEW008 BKN035 05/02 Q1019
RJOT 030100Z 06005KT 010V100 9999 FEW025 SCT040 BKN070 07/02 Q1019
RJOA 030100Z 11004KT 080V140 8000 FEW020 BKN030 BKN070 05/02 Q1019
TAF
RJOB 022312Z 0300/0406 07004KT 9999 FEW003 SCT045
       TEMPO 0306/0312 4000 -SHRA BR
       BECMG 0312/0315 27010KT
       TEMPO 0312/0315 3000 -SHRA BR FEW001 SCT003 BKN005
RJOT 022310Z 0300/0406 15004KT 9999 FEW025
       BECMG 0302/0304 25006KT
       BECMG 0315/0318 26016KT
RJOA 022306Z 0300/0406 15004KT 9999 FEW002 SCT010 BKN020
       BECMG 0301/0303 20008KT
       BECMG 0304/0306 3000 -SHRA BR FEW001 BKN008 BKN015
       TEMPO 0309/0315 1200 -SHRA BR BCFG FEW000 SCT003 BKN005
       BECMG 0310/0312 29010KT
       BECMG 0315/0318 9999 NSW FEW020 BKN045

本日は、前線の影響で午後から徐々に雨が降り始める可能性があり、レーダーを見ながらのフライトになりました。
いつもの訓練フライトにライセンサーの慣熟フライトを行いました。

解散    17:58

1番機  10:35離陸 撤収機  15:25着陸 

SF25C JA2330 ファルケ     07Flt.2h20min  
17E   JA2342 タイフーン    00Flt.0h00min  
合計                    07Flt.2h20min

01月27日
by OGC at 2019/1/28(月) 01:01:52 No.20190128005824 コメント】  削除 引用
1024 x 768 x 69,647バイト
No.1

01月27日
本日の参加者
  会員      13名
  その他      0名


@本日の様子




METAR
RJBK 270100Z 26011KT 25KM FEW025CU 06/M02 Q1025 A3029
RJOB 270100Z 25008KT 9999 FEW020 04/01 Q1024
RJOT 270100Z 26009KT 9999 FEW025 SCT035 BKN050 04/M03 Q1025
RJOA 270100Z 31012KT 280V340 9999 FEW020 05/M05 Q1025
TAF
RJOB 262310Z 2700/2806 31007KT 9999 FEW025 SCT045
RJOT 262305Z 2700/2806 28010KT 9999 FEW025 SCT060
     BECMG 2709/2711 15006KT
     BECMG 2721/2800 26013KT
RJOA 262307Z 2700/2806 32008KT 9999 FEW025

本日は、RWY27でほぼ正対風で始まり、日中、北からの横風成分が多くなりました。フライトは意外と沈下が少なく、総滑空時間が45分まで延びでした。
いつもの訓練フライトにNAV訓練とタイフーン整備中のため、ファルケがフル回転でした。

解散    17:40

1番機  11:00離陸 撤収機  17:05着陸 

SF25C JA2330 ファルケ     09Flt.3h05min  
17E   JA2342 タイフーン    00Flt.0h00min  
合計                    09Flt.3h05min
01月20日
by OGC at 2019/1/20(日) 22:08:04 No.20190120215615 コメント】  削除 引用
1706 x 960 x 187,396バイト <この画像は大きいので別画面で表示します>
No.1

01月20日
本日の参加者
  会員      12名
  その他      0名


@本日の様子




METAR
RJBK 200400Z 26011KT 20KM FEW015CU SCT030CU BKN060SC 11/08 Q1011 A2986
RJOB 200400Z 27011KT 9999 FEW020 SCT045 10/06 Q1010
RJOT 200400Z 24006KT 2500 -SHRA BR FEW001 SCT003 BKN007 09/08 Q1010
RJOA 200400Z 31009KT 9999 FEW002 SCT015 BKN035 09/04 Q1012
TAF
RJOB 192309Z 2000/2106 35004KT 9999 FEW025 SCT040
         TEMPO 2000/2001 3000 -SHRA BR BCFG FEW000 SCT003 BKN005
         BECMG 2000/2002 29014KT
RJOT 192309Z 2000/2106 15004KT 9999 FEW020 SCT035 BKN045
         BECMG 2000/2002 28017KT
         TEMPO 2000/2002 4000 -SHRA BR FEW003 SCT005 BKN008
         TEMPO 2003/2008 28019G29KT
RJOA 200014Z 2000/2106 29014KT 4000 -RA BR BCFG FEW000 SCT005 BKN008
         BECMG 2000/2002 9999 NSW FEW020 BKN040

本日の午前中は、雨と靄で視界不良でしたが、午後から風が強まり靄を一気に吹き飛ばして、いいフライトコンデションになりました。
午前中、年次総会を開催し、午後からいつも通り、訓練生は基礎訓練や着陸訓練を行いました。なお、タイフーンは整備中のためフライトはありません。

解散    17:37

1番機  14:30離陸 撤収機  16:50着陸 

SF25C JA2330 ファルケ     03Flt.1h35min  
17E   JA2342 タイフーン    00Flt.0h00min  
合計                    03Flt.1h35min
01月13日
by OGC at 2019/1/13(日) 23:39:53 No.20190113233430 コメント】  削除 引用
1024 x 768 x 66,892バイト
No.1

01月13日
本日の参加者
  会員      14名
  その他      4名


@本日の様子




METAR
RJBK 130100Z VRB01KT 30KM FEW020CU 03/01 Q1022 A3019
RJOB 130100Z VRB02KT 9999 FEW010 08/00 Q1020
RJOT 130100Z VRB01KT 9999 FEW020 06/02 Q1021
RJOA 130100Z 08009KT 060V130 9999 FEW020 SCT070 06/M01 Q1020
TAF
RJOB 122305Z 1300/1406 02005KT 9999 FEW025
RJOT 122308Z 1300/1406 03005KT 9999 FEW030
RJOA 122306Z 1300/1406 08004KT 9999 FEW025

本日の天候は晴れ、ほぼ無風で絶好の着陸訓練日和となりました。
訓練生は着陸訓練やナビ訓練、ライセンサーもナビや岡山空港に出かけたり、今日も日没までよく飛びました。

解散    17:37

1番機  11:00離陸 撤収機  17:05着陸 

SF25C JA2330 ファルケ     09Flt.3h10min  
17E   JA2342 タイフーン    05Flt.3h00min  
合計                    14Flt.6h10min
01月06日
by OGC at 2019/1/6(日) 20:01:16 No.20190106195513 コメント】  削除 引用
1024 x 768 x 37,534バイト
No.1

01月06日
本日の参加者
  会員      13名
  その他      0名


@本日の様子




METAR
RJBK 060100Z 36004KT 330V030 30KM FEW025ST BKN060SC 07/00 Q1022 A3023
RJOB 060100Z 34005KT 290V030 9999 FEW015 SCT045 BKN060 04/00 Q1022
RJOT 060100Z VRB02KT 9999 FEW020 SCT030 BKN060 06/01 Q1023
RJOA 060100Z 01007KT 340V040 9999 FEW020 BKN050 04/M02 Q1022
TAF
RJOB 052308Z 0600/0706 36007KT 9999 FEW020 BKN045
       BECMG 0700/0703 21006KT
RJOT 052308Z 0600/0706 36004KT 9999 FEW025 BKN050
       BECMG 0703/0706 27008KT
RJOA 052309Z 0600/0706 01005KT 9999 FEW020 BKN040
       BECMG 0703/0706 24005KT

今年、初めての活動日、天候は、一面の曇り空で、ほぼ真横の風が数ノット、絶好の横風着陸の訓練日和となりました。
ということで、今年の初飛びは、訓練生は横風着陸訓練、ライセンサーはサーマルソアリングなどを行い、日没までよく飛んでいました。

解散    17:22

1番機  11:20離陸 撤収機  17:00着陸 

SF25C JA2330 ファルケ     09Flt.2h55min  
17E   JA2342 タイフーン    04Flt.1h40min  
合計                    13Flt.4h35min
平成30年活動報告
by OGC at 2018/12/31(月) 22:44:03 No.20181231221505 コメント】  削除 引用
1024 x 768 x 84,499バイト
No.1

平成30年の活動は、下記のとおり、433フライト、158時間40分、よく飛びました。(^_^)v
来年も今年同様、安全運航で楽しく飛び回りましょう。
(年会費まだの方はお忘れなく!)

ファルケ  300Flt 102h30min
タイフーン 133Flt  56h10min
合計    433Flt 158h40min

フライトができなかった日数 4日
12月23日
by OGC at 2018/12/23(日) 23:06:02 No.20181223230402 コメント】  削除 引用
1024 x 768 x 76,842バイト
No.1

12月23日
本日の参加者
  会員      13名
  その他      0名


@本日の様子




METAR
RJBK 230100Z VRB02KT 15KM FEW008ST SCT/// 11/09 Q1017 A3004
RJOB 230100Z VRB02KT 9999 FEW008 SCT010 13/09 Q1016
RJOT 230100Z VRB01KT 9999 FEW010 SCT080 13/10 Q1017
RJOA 230100Z VRB02KT 9999 BCFG FEW000 BKN060 BKN100 11/08 Q1017
TAF
RJOB 222306Z 2300/2406 06004KT 9999 FEW015 BKN035
           TEMPO 2300/2302 FEW001 BKN005 BKN040
           BECMG 2302/2304 20005KT
           TEMPO 2304/2309 3000 -SHRA BR BCFG FEW000 SCT003 BKN008
           BECMG 2321/2400 03006KT
RJOT 222306Z 2300/2406 15004KT 9999 FEW010 SCT060
           BECMG 2300/2302 27006KT
           TEMPO 2306/2310 4000 -SHRA BR
RJOA 222305Z 2300/2406 25005KT 7000 -SHRA FEW001 SCT015 BKN030
           TEMPO 2303/2308 4000 -SHRA BR BCFG FEW000 BKN009 BKN015
           BECMG 2307/2309 32012KT

本日も曇り空、昼すぎから小雨が予想され、レーダーとにらめっこしながらのフライトになりました。視程が悪く地平線が見えにくい天候でしたが、訓練生にはこれもいい訓練になりました。
先週、同様、予想より早く雨が降り始め、一時、クラブルームで待機、雨が止むとすぐ、また訓練フライトを再開しました。
また、格納庫では、恒例の年末の大掃除を行い、正月を迎える準備を行いました。


解散    16:40

1番機  11:10離陸 撤収機  16:10着陸 

SF25C JA2330 ファルケ     08Flt.2h25min  
17E   JA2342 タイフーン    03Flt.1h20min  
合計                    11Flt.3h45min
12月16日
by OGC at 2018/12/16(日) 20:40:43 No.20181216203843 コメント】  削除 引用
1024 x 768 x 86,176バイト
No.1

12月09日
本日の参加者
  会員      11名
  その他      1名


@本日の様子




METAR
RJOB 160100Z 06005KT 9999 FEW015 BKN120 05/02 Q1023
RJOT 160100Z 11003KT 9999 FEW025 SCT120 BKN140 06/02 Q1023
RJOA 160100Z 11003KT 050V160 9999 FEW020 BKN035 BKN110 05/01 Q1023
TAF
RJOB 152307Z 1600/1706 09004KT 9999 FEW015
          BECMG 1607/1609 3000 -RA BR BCFG FEW000 BKN008 BKN020
          TEMPO 1609/1615 1500 RA BR BCFG FEW000 SCT003 BKN005
          BECMG 1618/1621 26013KT 9999 NSW FEW015 BKN045
RJOT 152309Z 1600/1706 06005KT 9999 FEW020 SCT045
          BECMG 1606/1608 4000 -RA BR FEW003 BKN008 BKN015
          TEMPO 1608/1615 1500 RA BR BCFG FEW000 SCT003 BKN005
          BECMG 1609/1611 20005KT
          BECMG 1618/1621 9999 NSW FEW015 SCT045
          BECMG 1700/1703 27015KT
RJOA 152306Z 1600/1706 20004KT 9999 FEW015 SCT025
          BECMG 1603/1605 3000 -RA BR BCFG FEW000 SCT005 BKN008
          TEMPO 1605/1609 0700 RA FG FEW000 SCT001 BKN003
          TEMPO 1609/1611 1500 -SHRA BR BCFG FEW000 SCT003 BKN005
          BECMG 1615/1618 9999 NSW FEW015 BKN030
          BECMG 1700/1703 29013KT

本日は曇り空で夕方ごろから雨が予想されました。上空は予想以上に上昇率がよく、沈降も少ないコンディションでした。
訓練フライトはいつものTGL訓練に小豆島までのNAV訓練を行い、予想より早く雨が降り始めたことから、本日は早めの解散となりました。


解散    15:50

1番機  11:00離陸 撤収機  15:10着陸 

SF25C JA2330 ファルケ     07Flt.2h25min  
17E   JA2342 タイフーン    02Flt.0h45min  
合計                    09Flt.3h10min

 データ復旧>IBM    DELL‥データ復旧

ホームページへ 全 47 件 [ 1 2 3 4 5 ]

モータースポーツ | 管理者へメール | お知らせ | 一括削除
携帯から使う方法 | ヘルプ | 利用規約 | 違反報告 | 管理パネル



- 無料レンタル掲示板 -